sensor_id;sensor_type;location;lat;lon;timestamp;P1;durP1;ratioP1;P2;durP2;ratioP2
45011;SDS011;63444;48.148;11.542;2024-02-04T00:00:43;6.73;;;3.20;;
45011;SDS011;63444;48.148;11.542;2024-02-04T00:03:09;3.57;;;3.20;;
45011;SDS011;63444;48.148;11.542;2024-02-04T00:05:35;3.27;;;2.97;;
45011;SDS011;63444;48.148;11.542;2024-02-04T00:08:01;3.37;;;3.07;;
45011;SDS011;63444;48.148;11.542;2024-02-04T00:10:27;3.33;;;3.03;;
45011;SDS011;63444;48.148;11.542;2024-02-04T00:12:53;3.80;;;3.40;;
45011;SDS011;63444;48.148;11.542;2024-02-04T00:15:19;3.60;;;2.93;;
45011;SDS011;63444;48.148;11.542;2024-02-04T00:17:45;3.87;;;3.40;;
45011;SDS011;63444;48.148;11.542;2024-02-04T00:20:11;5.20;;;3.83;;
45011;SDS011;63444;48.148;11.542;2024-02-04T00:22:36;3.40;;;3.10;;
45011;SDS011;63444;48.148;11.542;2024-02-04T00:25:02;3.43;;;3.13;;
45011;SDS011;63444;48.148;11.542;2024-02-04T00:27:33;3.40;;;3.10;;
45011;SDS011;63444;48.148;11.542;2024-02-04T00:29:59;4.00;;;3.23;;
45011;SDS011;63444;48.148;11.542;2024-02-04T00:32:25;4.87;;;3.40;;
45011;SDS011;63444;48.148;11.542;2024-02-04T00:34:51;3.97;;;3.27;;
45011;SDS011;63444;48.148;11.542;2024-02-04T00:37:17;3.13;;;2.83;;
45011;SDS011;63444;48.148;11.542;2024-02-04T00:39:43;5.03;;;3.40;;
45011;SDS011;63444;48.148;11.542;2024-02-04T00:42:09;7.00;;;3.30;;
45011;SDS011;63444;48.148;11.542;2024-02-04T00:44:35;3.60;;;3.30;;
45011;SDS011;63444;48.148;11.542;2024-02-04T00:47:01;3.57;;;3.17;;
45011;SDS011;63444;48.148;11.542;2024-02-04T00:49:27;3.27;;;2.97;;
45011;SDS011;63444;48.148;11.542;2024-02-04T00:51:53;3.30;;;3.00;;
45011;SDS011;63444;48.148;11.542;2024-02-04T00:54:19;3.47;;;3.00;;
45011;SDS011;63444;48.148;11.542;2024-02-04T00:56:44;3.40;;;3.10;;
45011;SDS011;63444;48.148;11.542;2024-02-04T00:59:10;4.27;;;3.33;;
45011;SDS011;63444;48.148;11.542;2024-02-04T01:01:37;3.80;;;3.50;;
45011;SDS011;63444;48.148;11.542;2024-02-04T01:04:03;3.50;;;3.20;;
45011;SDS011;63444;48.148;11.542;2024-02-04T01:06:28;4.10;;;3.70;;
45011;SDS011;63444;48.148;11.542;2024-02-04T01:08:55;4.33;;;3.90;;
45011;SDS011;63444;48.148;11.542;2024-02-04T01:11:21;4.53;;;4.13;;
45011;SDS011;63444;48.148;11.542;2024-02-04T01:13:47;4.60;;;4.20;;
45011;SDS011;63444;48.148;11.542;2024-02-04T01:16:12;5.27;;;4.47;;
45011;SDS011;63444;48.148;11.542;2024-02-04T01:18:38;4.77;;;4.37;;
45011;SDS011;63444;48.148;11.542;2024-02-04T01:21:04;4.20;;;3.80;;
45011;SDS011;63444;48.148;11.542;2024-02-04T01:23:29;4.63;;;4.23;;
45011;SDS011;63444;48.148;11.542;2024-02-04T01:25:55;5.07;;;4.60;;
45011;SDS011;63444;48.148;11.542;2024-02-04T01:28:21;4.77;;;4.37;;
45011;SDS011;63444;48.148;11.542;2024-02-04T01:30:47;4.77;;;4.23;;
45011;SDS011;63444;48.148;11.542;2024-02-04T01:33:14;4.70;;;4.30;;
45011;SDS011;63444;48.148;11.542;2024-02-04T01:35:40;4.47;;;4.07;;
45011;SDS011;63444;48.148;11.542;2024-02-04T01:38:05;4.40;;;4.00;;
45011;SDS011;63444;48.148;11.542;2024-02-04T01:40:31;4.43;;;4.03;;
45011;SDS011;63444;48.148;11.542;2024-02-04T01:42:56;4.57;;;4.17;;
45011;SDS011;63444;48.148;11.542;2024-02-04T01:45:22;4.33;;;3.93;;
45011;SDS011;63444;48.148;11.542;2024-02-04T01:47:49;3.90;;;3.60;;
45011;SDS011;63444;48.148;11.542;2024-02-04T01:50:15;4.17;;;3.80;;
45011;SDS011;63444;48.148;11.542;2024-02-04T01:52:42;4.30;;;3.90;;
45011;SDS011;63444;48.148;11.542;2024-02-04T01:55:09;4.40;;;4.00;;
45011;SDS011;63444;48.148;11.542;2024-02-04T01:57:35;4.70;;;4.30;;
45011;SDS011;63444;48.148;11.542;2024-02-04T02:00:01;4.40;;;4.00;;
45011;SDS011;63444;48.148;11.542;2024-02-04T02:02:29;4.37;;;3.90;;
45011;SDS011;63444;48.148;11.542;2024-02-04T02:04:55;4.40;;;4.00;;
45011;SDS011;63444;48.148;11.542;2024-02-04T02:07:22;4.87;;;4.37;;
45011;SDS011;63444;48.148;11.542;2024-02-04T02:09:52;4.13;;;3.80;;
45011;SDS011;63444;48.148;11.542;2024-02-04T02:12:19;5.23;;;3.80;;
45011;SDS011;63444;48.148;11.542;2024-02-04T02:15:32;3.83;;;3.43;;
45011;SDS011;63444;48.148;11.542;2024-02-04T02:20:41;4.33;;;3.93;;
45011;SDS011;63444;48.148;11.542;2024-02-04T02:23:28;3.93;;;3.63;;
45011;SDS011;63444;48.148;11.542;2024-02-04T02:25:56;4.33;;;3.93;;
45011;SDS011;63444;48.148;11.542;2024-02-04T02:28:22;4.50;;;3.90;;
45011;SDS011;63444;48.148;11.542;2024-02-04T02:30:48;4.30;;;3.80;;
45011;SDS011;63444;48.148;11.542;2024-02-04T02:33:14;3.83;;;3.53;;
45011;SDS011;63444;48.148;11.542;2024-02-04T02:35:39;4.57;;;3.63;;
45011;SDS011;63444;48.148;11.542;2024-02-04T02:40:53;4.13;;;3.73;;
45011;SDS011;63444;48.148;11.542;2024-02-04T02:43:23;3.90;;;3.60;;
45011;SDS011;63444;48.148;11.542;2024-02-04T02:45:50;5.23;;;3.90;;
45011;SDS011;63444;48.148;11.542;2024-02-04T02:48:15;4.30;;;3.90;;
45011;SDS011;63444;48.148;11.542;2024-02-04T02:50:41;3.83;;;3.53;;
45011;SDS011;63444;48.148;11.542;2024-02-04T02:53:07;4.20;;;3.80;;
45011;SDS011;63444;48.148;11.542;2024-02-04T02:55:32;3.97;;;3.23;;
45011;SDS011;63444;48.148;11.542;2024-02-04T02:57:58;3.83;;;3.53;;
45011;SDS011;63444;48.148;11.542;2024-02-04T03:00:24;4.23;;;3.40;;
45011;SDS011;63444;48.148;11.542;2024-02-04T03:02:49;3.40;;;3.10;;
45011;SDS011;63444;48.148;11.542;2024-02-04T03:05:15;3.80;;;3.07;;
45011;SDS011;63444;48.148;11.542;2024-02-04T03:07:41;3.63;;;3.33;;
45011;SDS011;63444;48.148;11.542;2024-02-04T03:10:07;4.23;;;3.50;;
45011;SDS011;63444;48.148;11.542;2024-02-04T03:12:33;3.40;;;3.10;;
45011;SDS011;63444;48.148;11.542;2024-02-04T03:14:59;3.30;;;3.00;;
45011;SDS011;63444;48.148;11.542;2024-02-04T03:17:25;3.90;;;3.57;;
45011;SDS011;63444;48.148;11.542;2024-02-04T03:19:50;3.10;;;2.90;;
45011;SDS011;63444;48.148;11.542;2024-02-04T03:22:21;2.93;;;2.73;;
45011;SDS011;63444;48.148;11.542;2024-02-04T03:24:48;3.13;;;2.93;;
45011;SDS011;63444;48.148;11.542;2024-02-04T03:27:14;3.33;;;3.00;;
45011;SDS011;63444;48.148;11.542;2024-02-04T03:29:40;3.10;;;2.90;;
45011;SDS011;63444;48.148;11.542;2024-02-04T03:32:05;3.57;;;3.27;;
45011;SDS011;63444;48.148;11.542;2024-02-04T03:34:31;3.50;;;3.20;;
45011;SDS011;63444;48.148;11.542;2024-02-04T03:36:57;3.30;;;3.00;;
45011;SDS011;63444;48.148;11.542;2024-02-04T03:39:22;3.70;;;3.33;;
45011;SDS011;63444;48.148;11.542;2024-02-04T03:41:48;3.40;;;3.10;;
45011;SDS011;63444;48.148;11.542;2024-02-04T03:44:13;3.80;;;3.50;;
45011;SDS011;63444;48.148;11.542;2024-02-04T03:46:39;3.63;;;3.30;;
45011;SDS011;63444;48.148;11.542;2024-02-04T03:49:06;3.53;;;3.23;;
45011;SDS011;63444;48.148;11.542;2024-02-04T03:51:32;3.33;;;3.03;;
45011;SDS011;63444;48.148;11.542;2024-02-04T03:53:58;3.47;;;3.17;;
45011;SDS011;63444;48.148;11.542;2024-02-04T03:56:24;3.50;;;3.20;;
45011;SDS011;63444;48.148;11.542;2024-02-04T03:58:49;2.90;;;2.70;;
45011;SDS011;63444;48.148;11.542;2024-02-04T04:01:15;3.03;;;2.83;;
45011;SDS011;63444;48.148;11.542;2024-02-04T04:03:41;4.00;;;3.03;;
45011;SDS011;63444;48.148;11.542;2024-02-04T04:06:11;3.53;;;3.00;;
45011;SDS011;63444;48.148;11.542;2024-02-04T04:08:37;3.10;;;2.80;;
45011;SDS011;63444;48.148;11.542;2024-02-04T04:11:05;3.40;;;3.10;;
45011;SDS011;63444;48.148;11.542;2024-02-04T04:13:32;3.40;;;2.97;;
45011;SDS011;63444;48.148;11.542;2024-02-04T04:15:59;3.17;;;2.90;;
45011;SDS011;63444;48.148;11.542;2024-02-04T04:18:25;3.17;;;2.87;;
45011;SDS011;63444;48.148;11.542;2024-02-04T04:20:51;5.87;;;3.23;;
45011;SDS011;63444;48.148;11.542;2024-02-04T04:23:17;2.97;;;2.73;;
45011;SDS011;63444;48.148;11.542;2024-02-04T04:25:42;3.10;;;2.80;;
45011;SDS011;63444;48.148;11.542;2024-02-04T04:28:08;3.03;;;2.73;;
45011;SDS011;63444;48.148;11.542;2024-02-04T04:30:34;3.00;;;2.70;;
45011;SDS011;63444;48.148;11.542;2024-02-04T04:32:59;3.43;;;2.80;;
45011;SDS011;63444;48.148;11.542;2024-02-04T04:35:25;3.20;;;2.57;;
45011;SDS011;63444;48.148;11.542;2024-02-04T04:37:50;2.90;;;2.60;;
45011;SDS011;63444;48.148;11.542;2024-02-04T04:40:17;3.47;;;2.60;;
45011;SDS011;63444;48.148;11.542;2024-02-04T04:42:43;3.17;;;2.40;;
45011;SDS011;63444;48.148;11.542;2024-02-04T04:45:09;3.10;;;2.80;;
45011;SDS011;63444;48.148;11.542;2024-02-04T04:47:35;2.57;;;2.37;;
45011;SDS011;63444;48.148;11.542;2024-02-04T04:50:01;2.43;;;2.23;;
45011;SDS011;63444;48.148;11.542;2024-02-04T04:52:27;2.87;;;2.53;;
45011;SDS011;63444;48.148;11.542;2024-02-04T04:54:54;2.50;;;2.30;;
45011;SDS011;63444;48.148;11.542;2024-02-04T04:57:20;2.60;;;2.40;;
45011;SDS011;63444;48.148;11.542;2024-02-04T04:59:45;3.47;;;2.30;;
45011;SDS011;63444;48.148;11.542;2024-02-04T05:02:11;2.40;;;2.20;;
45011;SDS011;63444;48.148;11.542;2024-02-04T05:04:37;2.67;;;2.47;;
45011;SDS011;63444;48.148;11.542;2024-02-04T05:07:02;4.37;;;2.47;;
45011;SDS011;63444;48.148;11.542;2024-02-04T05:09:28;2.20;;;2.10;;
45011;SDS011;63444;48.148;11.542;2024-02-04T05:11:54;2.20;;;2.00;;
45011;SDS011;63444;48.148;11.542;2024-02-04T05:14:19;2.40;;;2.20;;
45011;SDS011;63444;48.148;11.542;2024-02-04T05:16:46;2.50;;;2.10;;
45011;SDS011;63444;48.148;11.542;2024-02-04T05:19:12;3.67;;;2.40;;
45011;SDS011;63444;48.148;11.542;2024-02-04T05:21:39;3.27;;;2.17;;
45011;SDS011;63444;48.148;11.542;2024-02-04T05:24:05;2.30;;;2.07;;
45011;SDS011;63444;48.148;11.542;2024-02-04T05:26:31;2.27;;;2.07;;
45011;SDS011;63444;48.148;11.542;2024-02-04T05:28:56;2.70;;;2.40;;
45011;SDS011;63444;48.148;11.542;2024-02-04T05:31:22;2.93;;;2.17;;
45011;SDS011;63444;48.148;11.542;2024-02-04T05:33:48;5.10;;;2.17;;
45011;SDS011;63444;48.148;11.542;2024-02-04T05:36:16;2.10;;;1.90;;
45011;SDS011;63444;48.148;11.542;2024-02-04T05:38:43;2.43;;;2.23;;
45011;SDS011;63444;48.148;11.542;2024-02-04T05:41:10;4.27;;;2.33;;
45011;SDS011;63444;48.148;11.542;2024-02-04T05:43:35;3.43;;;2.13;;
45011;SDS011;63444;48.148;11.542;2024-02-04T05:46:01;2.73;;;2.30;;
45011;SDS011;63444;48.148;11.542;2024-02-04T05:48:27;3.93;;;2.50;;
45011;SDS011;63444;48.148;11.542;2024-02-04T05:50:52;4.47;;;2.47;;
45011;SDS011;63444;48.148;11.542;2024-02-04T05:53:18;3.00;;;2.10;;
45011;SDS011;63444;48.148;11.542;2024-02-04T05:55:44;4.87;;;2.77;;
45011;SDS011;63444;48.148;11.542;2024-02-04T05:58:09;4.47;;;2.83;;
45011;SDS011;63444;48.148;11.542;2024-02-04T06:00:35;3.17;;;2.63;;
45011;SDS011;63444;48.148;11.542;2024-02-04T06:03:01;3.43;;;3.00;;
45011;SDS011;63444;48.148;11.542;2024-02-04T06:05:26;4.63;;;2.47;;
45011;SDS011;63444;48.148;11.542;2024-02-04T06:07:52;4.57;;;3.00;;
45011;SDS011;63444;48.148;11.542;2024-02-04T06:10:18;3.90;;;2.57;;
45011;SDS011;63444;48.148;11.542;2024-02-04T06:12:43;3.73;;;3.00;;
45011;SDS011;63444;48.148;11.542;2024-02-04T06:15:13;5.60;;;2.80;;
45011;SDS011;63444;48.148;11.542;2024-02-04T06:17:39;3.57;;;2.77;;
45011;SDS011;63444;48.148;11.542;2024-02-04T06:20:05;7.57;;;2.80;;
45011;SDS011;63444;48.148;11.542;2024-02-04T06:22:31;4.17;;;2.80;;
45011;SDS011;63444;48.148;11.542;2024-02-04T06:24:58;4.40;;;3.07;;
45011;SDS011;63444;48.148;11.542;2024-02-04T06:27:24;3.00;;;2.70;;
45011;SDS011;63444;48.148;11.542;2024-02-04T06:29:50;2.60;;;2.40;;
45011;SDS011;63444;48.148;11.542;2024-02-04T06:32:16;2.90;;;2.60;;
45011;SDS011;63444;48.148;11.542;2024-02-04T06:34:45;2.73;;;2.53;;
45011;SDS011;63444;48.148;11.542;2024-02-04T06:37:11;3.80;;;2.73;;
45011;SDS011;63444;48.148;11.542;2024-02-04T06:39:37;3.40;;;2.93;;
45011;SDS011;63444;48.148;11.542;2024-02-04T06:42:03;5.70;;;2.83;;
45011;SDS011;63444;48.148;11.542;2024-02-04T06:44:29;5.00;;;2.90;;
45011;SDS011;63444;48.148;11.542;2024-02-04T06:46:55;3.40;;;2.43;;
45011;SDS011;63444;48.148;11.542;2024-02-04T06:49:20;3.00;;;2.70;;
45011;SDS011;63444;48.148;11.542;2024-02-04T06:51:46;4.77;;;2.60;;
45011;SDS011;63444;48.148;11.542;2024-02-04T06:54:12;3.43;;;2.97;;
45011;SDS011;63444;48.148;11.542;2024-02-04T06:56:38;4.03;;;2.73;;
45011;SDS011;63444;48.148;11.542;2024-02-04T06:59:05;6.70;;;3.23;;
45011;SDS011;63444;48.148;11.542;2024-02-04T07:01:32;4.77;;;3.97;;
45011;SDS011;63444;48.148;11.542;2024-02-04T07:03:58;5.47;;;3.80;;
45011;SDS011;63444;48.148;11.542;2024-02-04T07:06:25;6.00;;;3.43;;
45011;SDS011;63444;48.148;11.542;2024-02-04T07:08:50;9.33;;;3.50;;
45011;SDS011;63444;48.148;11.542;2024-02-04T07:11:16;7.17;;;3.50;;
45011;SDS011;63444;48.148;11.542;2024-02-04T07:13:41;4.20;;;3.80;;
45011;SDS011;63444;48.148;11.542;2024-02-04T07:16:07;5.90;;;3.70;;
45011;SDS011;63444;48.148;11.542;2024-02-04T07:18:33;4.10;;;3.63;;
45011;SDS011;63444;48.148;11.542;2024-02-04T07:20:59;4.43;;;3.93;;
45011;SDS011;63444;48.148;11.542;2024-02-04T07:23:24;5.93;;;4.10;;
45011;SDS011;63444;48.148;11.542;2024-02-04T07:25:50;5.23;;;4.23;;
45011;SDS011;63444;48.148;11.542;2024-02-04T07:28:15;5.40;;;4.03;;
45011;SDS011;63444;48.148;11.542;2024-02-04T07:30:42;6.93;;;5.00;;
45011;SDS011;63444;48.148;11.542;2024-02-04T07:33:08;5.77;;;4.80;;
45011;SDS011;63444;48.148;11.542;2024-02-04T07:35:34;8.97;;;4.90;;
45011;SDS011;63444;48.148;11.542;2024-02-04T07:37:59;5.57;;;4.83;;
45011;SDS011;63444;48.148;11.542;2024-02-04T07:40:25;5.70;;;5.10;;
45011;SDS011;63444;48.148;11.542;2024-02-04T07:42:53;6.17;;;4.87;;
45011;SDS011;63444;48.148;11.542;2024-02-04T07:45:19;5.87;;;4.87;;
45011;SDS011;63444;48.148;11.542;2024-02-04T07:47:45;7.20;;;4.60;;
45011;SDS011;63444;48.148;11.542;2024-02-04T07:50:10;8.17;;;4.90;;
45011;SDS011;63444;48.148;11.542;2024-02-04T07:52:36;7.37;;;5.00;;
45011;SDS011;63444;48.148;11.542;2024-02-04T07:55:01;9.57;;;4.30;;
45011;SDS011;63444;48.148;11.542;2024-02-04T07:57:27;10.47;;;5.00;;
45011;SDS011;63444;48.148;11.542;2024-02-04T07:59:53;6.83;;;4.30;;
45011;SDS011;63444;48.148;11.542;2024-02-04T08:02:18;8.03;;;4.80;;
45011;SDS011;63444;48.148;11.542;2024-02-04T08:04:44;4.93;;;4.37;;
45011;SDS011;63444;48.148;11.542;2024-02-04T08:07:10;5.97;;;4.00;;
45011;SDS011;63444;48.148;11.542;2024-02-04T08:09:35;4.73;;;3.50;;
45011;SDS011;63444;48.148;11.542;2024-02-04T08:12:01;4.33;;;3.83;;
45011;SDS011;63444;48.148;11.542;2024-02-04T08:14:26;7.77;;;3.87;;
45011;SDS011;63444;48.148;11.542;2024-02-04T08:16:52;8.73;;;4.20;;
45011;SDS011;63444;48.148;11.542;2024-02-04T08:19:18;6.07;;;3.60;;
45011;SDS011;63444;48.148;11.542;2024-02-04T08:21:44;5.47;;;3.10;;
45011;SDS011;63444;48.148;11.542;2024-02-04T08:24:11;6.70;;;3.33;;
45011;SDS011;63444;48.148;11.542;2024-02-04T08:26:36;6.90;;;3.57;;
45011;SDS011;63444;48.148;11.542;2024-02-04T08:29:02;5.67;;;3.43;;
45011;SDS011;63444;48.148;11.542;2024-02-04T08:31:29;4.93;;;3.43;;
45011;SDS011;63444;48.148;11.542;2024-02-04T08:33:57;4.00;;;3.00;;
45011;SDS011;63444;48.148;11.542;2024-02-04T08:36:23;5.17;;;3.37;;
45011;SDS011;63444;48.148;11.542;2024-02-04T08:38:49;5.23;;;3.40;;
45011;SDS011;63444;48.148;11.542;2024-02-04T08:41:14;7.13;;;3.47;;
45011;SDS011;63444;48.148;11.542;2024-02-04T08:43:41;6.73;;;3.20;;
45011;SDS011;63444;48.148;11.542;2024-02-04T08:46:08;5.77;;;2.97;;
45011;SDS011;63444;48.148;11.542;2024-02-04T08:48:35;5.67;;;2.97;;
45011;SDS011;63444;48.148;11.542;2024-02-04T08:51:01;8.90;;;3.27;;
45011;SDS011;63444;48.148;11.542;2024-02-04T08:53:27;8.27;;;3.53;;
45011;SDS011;63444;48.148;11.542;2024-02-04T08:55:54;6.90;;;3.20;;
45011;SDS011;63444;48.148;11.542;2024-02-04T08:58:20;3.67;;;3.03;;
45011;SDS011;63444;48.148;11.542;2024-02-04T09:00:47;8.83;;;3.13;;
45011;SDS011;63444;48.148;11.542;2024-02-04T09:03:12;4.70;;;2.83;;
45011;SDS011;63444;48.148;11.542;2024-02-04T09:05:38;6.33;;;3.50;;
45011;SDS011;63444;48.148;11.542;2024-02-04T09:08:03;5.53;;;3.37;;
45011;SDS011;63444;48.148;11.542;2024-02-04T09:10:29;7.20;;;3.27;;
45011;SDS011;63444;48.148;11.542;2024-02-04T09:12:56;7.23;;;3.43;;
45011;SDS011;63444;48.148;11.542;2024-02-04T09:15:22;7.60;;;3.77;;
45011;SDS011;63444;48.148;11.542;2024-02-04T09:17:47;5.40;;;3.00;;
45011;SDS011;63444;48.148;11.542;2024-02-04T09:20:13;5.90;;;3.43;;
45011;SDS011;63444;48.148;11.542;2024-02-04T09:22:40;8.00;;;3.87;;
45011;SDS011;63444;48.148;11.542;2024-02-04T09:25:06;5.63;;;3.20;;
45011;SDS011;63444;48.148;11.542;2024-02-04T09:27:31;6.47;;;3.50;;
45011;SDS011;63444;48.148;11.542;2024-02-04T09:29:57;6.17;;;3.30;;
45011;SDS011;63444;48.148;11.542;2024-02-04T09:32:24;9.53;;;3.73;;
45011;SDS011;63444;48.148;11.542;2024-02-04T09:34:50;4.57;;;3.23;;
45011;SDS011;63444;48.148;11.542;2024-02-04T09:37:15;10.17;;;3.90;;
45011;SDS011;63444;48.148;11.542;2024-02-04T09:39:41;5.73;;;3.27;;
45011;SDS011;63444;48.148;11.542;2024-02-04T09:42:07;7.77;;;3.63;;
45011;SDS011;63444;48.148;11.542;2024-02-04T09:44:33;5.53;;;3.30;;
45011;SDS011;63444;48.148;11.542;2024-02-04T09:47:00;5.93;;;3.73;;
45011;SDS011;63444;48.148;11.542;2024-02-04T09:49:27;7.50;;;3.80;;
45011;SDS011;63444;48.148;11.542;2024-02-04T09:51:53;6.20;;;3.53;;
45011;SDS011;63444;48.148;11.542;2024-02-04T09:54:21;5.63;;;3.67;;
45011;SDS011;63444;48.148;11.542;2024-02-04T09:56:48;5.77;;;3.50;;
45011;SDS011;63444;48.148;11.542;2024-02-04T09:59:16;4.77;;;3.30;;
45011;SDS011;63444;48.148;11.542;2024-02-04T10:01:42;6.10;;;4.00;;
45011;SDS011;63444;48.148;11.542;2024-02-04T10:04:09;10.40;;;4.30;;
45011;SDS011;63444;48.148;11.542;2024-02-04T10:06:35;7.80;;;3.70;;
45011;SDS011;63444;48.148;11.542;2024-02-04T10:09:00;4.77;;;3.70;;
45011;SDS011;63444;48.148;11.542;2024-02-04T10:11:29;9.23;;;4.47;;
45011;SDS011;63444;48.148;11.542;2024-02-04T10:13:55;5.90;;;3.93;;
45011;SDS011;63444;48.148;11.542;2024-02-04T10:16:22;5.63;;;3.57;;
45011;SDS011;63444;48.148;11.542;2024-02-04T10:18:48;8.80;;;4.07;;
45011;SDS011;63444;48.148;11.542;2024-02-04T10:21:14;13.07;;;4.10;;
45011;SDS011;63444;48.148;11.542;2024-02-04T10:23:41;6.27;;;3.73;;
45011;SDS011;63444;48.148;11.542;2024-02-04T10:26:07;6.87;;;3.87;;
45011;SDS011;63444;48.148;11.542;2024-02-04T10:28:32;4.00;;;3.60;;
45011;SDS011;63444;48.148;11.542;2024-02-04T10:30:58;6.43;;;4.13;;
45011;SDS011;63444;48.148;11.542;2024-02-04T10:33:24;4.87;;;3.67;;
45011;SDS011;63444;48.148;11.542;2024-02-04T10:35:49;7.13;;;3.50;;
45011;SDS011;63444;48.148;11.542;2024-02-04T10:38:15;5.90;;;3.97;;
45011;SDS011;63444;48.148;11.542;2024-02-04T10:40:41;6.50;;;3.50;;
45011;SDS011;63444;48.148;11.542;2024-02-04T10:43:06;6.43;;;3.83;;
45011;SDS011;63444;48.148;11.542;2024-02-04T10:45:33;4.67;;;3.83;;
45011;SDS011;63444;48.148;11.542;2024-02-04T10:48:06;4.80;;;3.40;;
45011;SDS011;63444;48.148;11.542;2024-02-04T10:50:33;5.83;;;3.67;;
45011;SDS011;63444;48.148;11.542;2024-02-04T10:53:03;7.90;;;3.70;;
45011;SDS011;63444;48.148;11.542;2024-02-04T10:55:30;4.80;;;3.47;;
45011;SDS011;63444;48.148;11.542;2024-02-04T10:57:56;4.17;;;3.00;;
45011;SDS011;63444;48.148;11.542;2024-02-04T11:00:23;4.57;;;3.43;;
45011;SDS011;63444;48.148;11.542;2024-02-04T11:02:49;4.90;;;3.27;;
45011;SDS011;63444;48.148;11.542;2024-02-04T11:05:19;5.30;;;3.53;;
45011;SDS011;63444;48.148;11.542;2024-02-04T11:07:46;6.37;;;3.10;;
45011;SDS011;63444;48.148;11.542;2024-02-04T11:10:12;4.00;;;3.30;;
45011;SDS011;63444;48.148;11.542;2024-02-04T11:12:39;3.80;;;2.70;;
45011;SDS011;63444;48.148;11.542;2024-02-04T11:15:07;5.10;;;3.00;;
45011;SDS011;63444;48.148;11.542;2024-02-04T11:25:51;4.17;;;2.07;;
45011;SDS011;63444;48.148;11.542;2024-02-04T11:28:20;3.37;;;2.03;;
45011;SDS011;63444;48.148;11.542;2024-02-04T11:30:47;3.40;;;2.03;;
45011;SDS011;63444;48.148;11.542;2024-02-04T11:33:13;3.43;;;2.30;;
45011;SDS011;63444;48.148;11.542;2024-02-04T11:35:43;2.80;;;1.87;;
45011;SDS011;63444;48.148;11.542;2024-02-04T11:38:09;2.10;;;1.70;;
45011;SDS011;63444;48.148;11.542;2024-02-04T11:40:39;4.17;;;1.93;;
45011;SDS011;63444;48.148;11.542;2024-02-04T11:43:13;2.67;;;1.70;;
45011;SDS011;63444;48.148;11.542;2024-02-04T11:45:43;1.80;;;1.70;;
45011;SDS011;63444;48.148;11.542;2024-02-04T11:48:10;4.03;;;1.70;;
45011;SDS011;63444;48.148;11.542;2024-02-04T11:50:37;4.23;;;1.97;;
45011;SDS011;63444;48.148;11.542;2024-02-04T11:53:10;2.30;;;1.80;;
45011;SDS011;63444;48.148;11.542;2024-02-04T11:55:39;3.80;;;1.70;;
45011;SDS011;63444;48.148;11.542;2024-02-04T11:58:05;3.50;;;1.63;;
45011;SDS011;63444;48.148;11.542;2024-02-04T12:00:35;3.30;;;1.60;;
45011;SDS011;63444;48.148;11.542;2024-02-04T12:03:01;4.87;;;1.67;;
45011;SDS011;63444;48.148;11.542;2024-02-04T12:05:30;3.20;;;1.80;;
45011;SDS011;63444;48.148;11.542;2024-02-04T12:07:59;4.00;;;1.87;;
45011;SDS011;63444;48.148;11.542;2024-02-04T12:10:32;5.97;;;1.67;;
45011;SDS011;63444;48.148;11.542;2024-02-04T12:13:05;2.67;;;1.50;;
45011;SDS011;63444;48.148;11.542;2024-02-04T12:15:34;2.57;;;1.50;;
45011;SDS011;63444;48.148;11.542;2024-02-04T12:18:10;2.20;;;1.60;;
45011;SDS011;63444;48.148;11.542;2024-02-04T12:20:37;2.17;;;1.50;;
45011;SDS011;63444;48.148;11.542;2024-02-04T12:23:03;2.50;;;1.40;;
45011;SDS011;63444;48.148;11.542;2024-02-04T12:25:30;4.30;;;1.57;;
45011;SDS011;63444;48.148;11.542;2024-02-04T12:27:57;5.23;;;2.00;;
45011;SDS011;63444;48.148;11.542;2024-02-04T12:30:24;3.10;;;1.50;;
45011;SDS011;63444;48.148;11.542;2024-02-04T12:32:56;2.50;;;1.30;;
45011;SDS011;63444;48.148;11.542;2024-02-04T12:35:23;1.57;;;1.47;;
45011;SDS011;63444;48.148;11.542;2024-02-04T12:37:50;2.47;;;1.63;;
45011;SDS011;63444;48.148;11.542;2024-02-04T12:40:29;3.70;;;1.47;;
45011;SDS011;63444;48.148;11.542;2024-02-04T12:42:56;2.57;;;1.60;;
45011;SDS011;63444;48.148;11.542;2024-02-04T12:45:23;2.50;;;1.50;;
45011;SDS011;63444;48.148;11.542;2024-02-04T12:47:50;3.13;;;1.40;;
45011;SDS011;63444;48.148;11.542;2024-02-04T12:50:20;1.47;;;1.27;;
45011;SDS011;63444;48.148;11.542;2024-02-04T12:52:49;3.97;;;1.70;;
45011;SDS011;63444;48.148;11.542;2024-02-04T12:55:40;2.93;;;1.50;;
45011;SDS011;63444;48.148;11.542;2024-02-04T12:58:11;3.27;;;1.73;;
45011;SDS011;63444;48.148;11.542;2024-02-04T13:00:43;4.23;;;2.10;;
45011;SDS011;63444;48.148;11.542;2024-02-04T13:03:08;4.40;;;1.83;;
45011;SDS011;63444;48.148;11.542;2024-02-04T13:05:35;3.20;;;1.50;;
45011;SDS011;63444;48.148;11.542;2024-02-04T13:08:02;3.93;;;1.80;;
45011;SDS011;63444;48.148;11.542;2024-02-04T13:10:31;2.87;;;1.60;;
45011;SDS011;63444;48.148;11.542;2024-02-04T13:13:02;5.07;;;1.83;;
45011;SDS011;63444;48.148;11.542;2024-02-04T13:15:36;4.50;;;2.57;;
45011;SDS011;63444;48.148;11.542;2024-02-04T13:18:02;3.37;;;1.60;;
45011;SDS011;63444;48.148;11.542;2024-02-04T13:20:27;5.13;;;1.77;;
45011;SDS011;63444;48.148;11.542;2024-02-04T13:22:53;6.13;;;2.33;;
45011;SDS011;63444;48.148;11.542;2024-02-04T13:25:20;4.17;;;1.83;;
45011;SDS011;63444;48.148;11.542;2024-02-04T13:27:49;4.23;;;1.80;;
45011;SDS011;63444;48.148;11.542;2024-02-04T13:30:18;3.43;;;1.63;;
45011;SDS011;63444;48.148;11.542;2024-02-04T13:32:45;3.43;;;1.83;;
45011;SDS011;63444;48.148;11.542;2024-02-04T13:35:15;3.40;;;1.80;;
45011;SDS011;63444;48.148;11.542;2024-02-04T13:37:44;2.57;;;1.60;;
45011;SDS011;63444;48.148;11.542;2024-02-04T13:40:13;2.17;;;1.70;;
45011;SDS011;63444;48.148;11.542;2024-02-04T13:42:40;2.10;;;1.73;;
45011;SDS011;63444;48.148;11.542;2024-02-04T13:45:06;2.40;;;1.90;;
45011;SDS011;63444;48.148;11.542;2024-02-04T13:47:31;3.60;;;1.87;;
45011;SDS011;63444;48.148;11.542;2024-02-04T13:49:57;4.40;;;2.30;;
45011;SDS011;63444;48.148;11.542;2024-02-04T13:52:24;2.77;;;1.47;;
45011;SDS011;63444;48.148;11.542;2024-02-04T13:54:50;4.23;;;1.80;;
45011;SDS011;63444;48.148;11.542;2024-02-04T13:57:15;3.03;;;1.87;;
45011;SDS011;63444;48.148;11.542;2024-02-04T13:59:41;2.67;;;1.63;;
45011;SDS011;63444;48.148;11.542;2024-02-04T14:02:07;4.47;;;1.70;;
45011;SDS011;63444;48.148;11.542;2024-02-04T14:04:35;3.77;;;1.70;;
45011;SDS011;63444;48.148;11.542;2024-02-04T14:07:02;2.47;;;1.90;;
45011;SDS011;63444;48.148;11.542;2024-02-04T14:09:28;6.30;;;2.00;;
45011;SDS011;63444;48.148;11.542;2024-02-04T14:11:54;2.63;;;1.87;;
45011;SDS011;63444;48.148;11.542;2024-02-04T14:14:22;3.83;;;2.03;;
45011;SDS011;63444;48.148;11.542;2024-02-04T14:16:48;3.23;;;1.60;;
45011;SDS011;63444;48.148;11.542;2024-02-04T14:19:14;4.10;;;2.00;;
45011;SDS011;63444;48.148;11.542;2024-02-04T14:21:42;5.27;;;2.10;;
45011;SDS011;63444;48.148;11.542;2024-02-04T14:24:08;4.23;;;1.83;;
45011;SDS011;63444;48.148;11.542;2024-02-04T14:26:34;5.07;;;2.17;;
45011;SDS011;63444;48.148;11.542;2024-02-04T14:29:01;9.07;;;2.23;;
45011;SDS011;63444;48.148;11.542;2024-02-04T14:31:27;5.37;;;1.50;;
45011;SDS011;63444;48.148;11.542;2024-02-04T14:33:54;3.73;;;2.00;;
45011;SDS011;63444;48.148;11.542;2024-02-04T14:36:19;4.80;;;2.00;;
45011;SDS011;63444;48.148;11.542;2024-02-04T14:38:45;4.47;;;1.80;;
45011;SDS011;63444;48.148;11.542;2024-02-04T14:41:10;4.03;;;2.07;;
45011;SDS011;63444;48.148;11.542;2024-02-04T14:43:37;2.60;;;1.70;;